Fairville, Pennsylvania
Current Conditions -  °F | °C
As of 12:22 PM on Thursday 23 Oct 2014 (Local Time) from KSEG Reporting Station
Overcast Overcast  
Wind Chill: 56°   Ceiling: 3000
Heat Index: 56°   Visibility: 10mi
Dew Point: 44°   Wind: 16mph
Humidity: 64%   Direction: 350°N
Pressure: 29.89"   Gusts: 25mph
Location:  40.9885°N, 76.9787°W
Report Text: KSEG 231622Z AUTO 35014G22KT 10SM OVC030 13/07 A2989 RMK AO2 PK WND 34027/1610 T01330067
Loading
Personal Weather Stations






























Interactive Weather Map
Tropical Storm Tracking
New forecast layout! Learn more

10-Day Weather Forecast

Advertisements
Track Severe Weather on mobile